Vicente Aguado — EA4112 — position and weather

sailwx.info

Track history (hours):
 
Tides and Currents Weather Stations Pressure Air Temp Water Temp Dewpoint Dewpoint Depression Visibility Wind Speed Wind Dir Waves Ship Positions

Vicente Aguado

Last reported at 2018-Jun-16 10:50 UTC. Time now 2018-Jun-20 19:04 UTC.
Position N 38°17' E 001°08'.

Length 20 m; draft 2.8 m.

Type: Fishing. MMSI: 224099560.

Date/timePositionNaut miles runAvg speedWind from/ knotsBaromVisibWave heightAir tempDewpointWater temp
2018-Jun-16 10:50N 38°17' E 001°08'41 4.8
2018-Jun-16 02:21N 37°54' E 000°25'3 8.9
2018-Jun-16 02:00N 37°52' E 000°22'19 8.5
2018-Jun-15 23:43N 37°43' E 000°00'2 8.3
2018-Jun-15 23:30N 37°42' W 000°02'5 8.3
2018-Jun-15 22:56N 37°40' W 000°07'4 8.5
2018-Jun-15 22:30N 37°39' W 000°11'8 8.5
2018-Jun-15 21:36N 37°36' W 000°20'1 8.4
2018-Jun-15 21:30N 37°35' W 000°21'5 8.6
2018-Jun-15 20:58N 37°33' W 000°27'4 8.7
2018-Jun-15 20:30N 37°32' W 000°31'10 8.7
2018-Jun-15 19:25N 37°29' W 000°43'4 9.0
2018-Jun-15 18:58N 37°28' W 000°48'5 8.9
2018-Jun-15 18:28N 37°26' W 000°53'  
Track history (hours):
 
Tides and Currents Weather Stations Pressure Air Temp Water Temp Dewpoint Dewpoint Depression Visibility Wind Speed Wind Dir Waves Ship Positions

Vicente Aguado

Last reported at 2018-Jun-16 10:50 UTC. Time now 2018-Jun-20 19:04 UTC.
Position N 38°17' E 001°08'.

Length 20 m; draft 2.8 m.

Type: Fishing. MMSI: 224099560.

Date/timePositionNaut miles runAvg speedWind from/ knotsBaromVisibWave heightAir tempDewpointWater temp
2018-Jun-16 10:50N 38°17' E 001°08'41 4.8
2018-Jun-16 02:21N 37°54' E 000°25'3 8.9
2018-Jun-16 02:00N 37°52' E 000°22'19 8.5
2018-Jun-15 23:43N 37°43' E 000°00'2 8.3
2018-Jun-15 23:30N 37°42' W 000°02'5 8.3
2018-Jun-15 22:56N 37°40' W 000°07'4 8.5
2018-Jun-15 22:30N 37°39' W 000°11'8 8.5
2018-Jun-15 21:36N 37°36' W 000°20'1 8.4
2018-Jun-15 21:30N 37°35' W 000°21'5 8.6
2018-Jun-15 20:58N 37°33' W 000°27'4 8.7
2018-Jun-15 20:30N 37°32' W 000°31'10 8.7
2018-Jun-15 19:25N 37°29' W 000°43'4 9.0
2018-Jun-15 18:58N 37°28' W 000°48'5 8.9
2018-Jun-15 18:28N 37°26' W 000°53'  

Dump ship's entire track history